Time;durP1;ratioP1;P1;durP2;ratioP2;P2;SDS_P1;SDS_P2;PMS_P1;PMS_P2;Temp;Humidity;BMP_temperature;BMP_pressure;BME280_temperature;BME280_humidity;BME280_pressure;Samples;Min_cycle;Max_cycle;Signal;HPM_P1;HPM_P2
2023/04/10 00:02:21;;;;;;;21.33;12.43;;;11.20;64.90;;;;;;5036977;28;20075;-86
2023/04/10 00:04:47;;;;;;;22.63;13.90;;;11.10;64.90;;;;;;5054944;28;20025;-86
2023/04/10 00:07:13;;;;;;;17.97;12.20;;;11.20;65.70;;;;;;5020534;28;20481;-87
2023/04/10 00:09:39;;;;;;;19.87;12.67;;;11.20;65.10;;;;;;5037070;28;20025;-87
2023/04/10 00:12:05;;;;;;;18.03;11.10;;;11.10;65.10;;;;;;5055010;28;20115;-86
2023/04/10 00:14:31;;;;;;;17.23;11.80;;;11.10;65.30;;;;;;5020729;28;20059;-87
2023/04/10 00:16:56;;;;;;;18.93;11.80;;;11.10;65.30;;;;;;5020490;28;20021;-87
2023/04/10 00:19:22;;;;;;;18.50;11.23;;;11.00;65.40;;;;;;5020301;28;20420;-87
2023/04/10 00:21:48;;;;;;;17.43;10.53;;;11.00;65.50;;;;;;5036746;28;20485;-87
2023/04/10 00:24:13;;;;;;;18.60;10.97;;;11.00;65.70;;;;;;5020318;28;20028;-86
2023/04/10 00:26:40;;;;;;;18.10;10.60;;;11.00;65.80;;;;;;5036736;28;20100;-86
2023/04/10 00:29:07;;;;;;;19.00;12.00;;;10.90;65.90;;;;;;5019880;28;20028;-86
2023/04/10 00:31:32;;;;;;;20.13;11.10;;;10.90;66.10;;;;;;5019986;28;20025;-86
2023/04/10 00:33:58;;;;;;;16.33;11.00;;;10.90;66.30;;;;;;5036615;28;20121;-87
2023/04/10 00:36:24;;;;;;;17.20;10.43;;;10.80;66.40;;;;;;5019334;28;20021;-77
2023/04/10 00:38:50;;;;;;;16.87;9.93;;;10.80;66.50;;;;;;5019164;28;20033;-77
2023/04/10 00:41:15;;;;;;;16.43;10.23;;;10.80;66.60;;;;;;5019086;28;20078;-77
2023/04/10 00:43:42;;;;;;;15.97;10.33;;;10.80;66.80;;;;;;5018713;28;20021;-77
2023/04/10 00:46:08;;;;;;;15.13;9.20;;;10.80;67.00;;;;;;5035396;28;20067;-77
2023/04/10 00:48:35;;;;;;;16.50;10.03;;;10.80;67.20;;;;;;5018988;28;20561;-77
2023/04/10 00:51:01;;;;;;;13.83;9.23;;;10.70;67.20;;;;;;5035427;28;20025;-77
2023/04/10 00:53:27;;;;;;;14.30;9.13;;;10.70;67.20;;;;;;5019297;28;20033;-77
2023/04/10 00:55:55;;;;;;;13.40;8.60;;;10.70;67.40;;;;;;5019104;28;20495;-77
2023/04/10 00:58:20;;;;;;;13.77;7.60;;;10.60;67.50;;;;;;5035165;28;20124;-77
2023/04/10 01:00:47;;;;;;;14.00;8.53;;;10.60;67.60;;;;;;5035008;28;20083;-77
2023/04/10 01:03:15;;;;;;;12.77;8.10;;;10.60;67.60;;;;;;5018807;28;20477;-77
2023/04/10 01:05:52;;;;;;;14.03;9.17;;;10.60;67.80;;;;;;5018653;28;20028;-77
2023/04/10 01:08:33;;;;;;;13.87;8.47;;;10.60;67.90;;;;;;5035140;28;20453;-77
2023/04/10 01:11:09;;;;;;;12.43;7.30;;;10.60;68.00;;;;;;5053425;28;20477;-86
2023/04/10 01:13:46;;;;;;;11.93;7.43;;;10.50;67.90;;;;;;5035953;28;20021;-86
2023/04/10 01:16:39;;;;;;;13.27;7.40;;;10.50;68.00;;;;;;5054046;28;20021;-86
2023/04/10 01:19:47;;;;;;;12.90;6.93;;;10.60;68.10;;;;;;5036000;28;20129;-86
2023/04/10 01:22:15;;;;;;;13.60;7.60;;;10.50;68.10;;;;;;5026996;28;20404;-86
2023/04/10 01:25:18;;;;;;;11.97;7.50;;;10.50;68.10;;;;;;5035816;28;20454;-87
2023/04/10 01:28:06;;;;;;;11.97;7.30;;;10.50;68.30;;;;;;5035957;28;20029;-86
2023/04/10 01:30:34;;;;;;;12.50;7.53;;;10.50;68.30;;;;;;5043400;28;20021;-86
2023/04/10 01:33:01;;;;;;;14.30;7.70;;;10.50;68.30;;;;;;5050917;28;20112;-86
2023/04/10 01:35:29;;;;;;;11.37;7.40;;;10.50;68.50;;;;;;5055274;28;20024;-86
2023/04/10 01:37:56;;;;;;;13.77;6.87;;;10.40;68.50;;;;;;5055503;28;20047;-86
2023/04/10 01:40:25;;;;;;;12.53;6.70;;;10.40;68.60;;;;;;5055264;28;20060;-86
2023/04/10 01:42:54;;;;;;;13.20;8.03;;;10.40;68.70;;;;;;5055344;28;20060;-86
2023/04/10 01:45:23;;;;;;;12.77;7.43;;;10.40;68.80;;;;;;5073283;28;20044;-87
2023/04/10 01:47:50;;;;;;;11.60;7.17;;;10.40;68.90;;;;;;5055350;28;20071;-86
2023/04/10 01:50:16;;;;;;;13.60;6.93;;;10.40;68.90;;;;;;5055857;28;20395;-86
2023/04/10 01:52:44;;;;;;;12.77;7.23;;;10.40;68.90;;;;;;5055717;28;20021;-86
2023/04/10 01:55:10;;;;;;;12.47;7.77;;;10.30;68.90;;;;;;5055428;28;20052;-87
2023/04/10 01:57:36;;;;;;;11.67;7.30;;;10.30;68.90;;;;;;5042545;28;20488;-86
2023/04/10 02:00:03;;;;;;;10.80;6.67;;;10.40;69.10;;;;;;5059048;28;20055;-86
2023/04/10 02:02:32;;;;;;;12.77;7.23;;;10.40;69.10;;;;;;5059166;28;20021;-86
2023/04/10 02:04:59;;;;;;;13.80;7.17;;;10.40;69.10;;;;;;5058969;28;20164;-86
2023/04/10 02:07:45;;;;;;;11.33;6.90;;;10.30;69.10;;;;;;5059139;28;20051;-85
2023/04/10 02:10:22;;;;;;;12.03;6.23;;;10.40;69.30;;;;;;5058689;28;20063;-86
2023/04/10 02:13:00;;;;;;;12.23;7.27;;;10.30;69.30;;;;;;5058770;28;20033;-86
2023/04/10 02:15:29;;;;;;;11.53;7.10;;;10.30;69.40;;;;;;5058836;28;20037;-86
2023/04/10 02:17:57;;;;;;;12.33;7.43;;;10.30;69.50;;;;;;5058760;28;20115;-86
2023/04/10 02:20:24;;;;;;;12.93;7.03;;;10.30;69.50;;;;;;5058986;28;20384;-87
2023/04/10 02:22:52;;;;;;;12.73;7.30;;;10.30;69.60;;;;;;5058795;28;20111;-86
2023/04/10 02:25:17;;;;;;;12.00;6.93;;;10.30;69.70;;;;;;5058829;28;20028;-86
2023/04/10 02:27:43;;;;;;;11.67;7.10;;;10.30;69.70;;;;;;5042225;28;20029;-86
2023/04/10 02:30:09;;;;;;;13.40;7.53;;;10.20;69.80;;;;;;5042465;28;20056;-86
2023/04/10 02:32:35;;;;;;;11.97;7.60;;;10.20;69.80;;;;;;5042310;28;20041;-86
2023/04/10 02:35:01;;;;;;;11.90;7.57;;;10.20;70.00;;;;;;5042471;28;20029;-86
2023/04/10 02:37:27;;;;;;;12.57;8.33;;;10.10;70.10;;;;;;5058992;28;20060;-86
2023/04/10 02:39:53;;;;;;;13.53;7.47;;;10.10;70.20;;;;;;5041825;28;20035;-86
2023/04/10 02:42:19;;;;;;;12.33;7.87;;;10.10;70.40;;;;;;5042327;28;20115;-86
2023/04/10 02:44:46;;;;;;;12.50;7.27;;;10.00;70.50;;;;;;5059120;28;20021;-86
2023/04/10 02:47:14;;;;;;;12.43;7.87;;;10.00;70.60;;;;;;5059302;28;20052;-86
2023/04/10 02:49:40;;;;;;;32.60;8.40;;;10.00;70.70;;;;;;5042859;28;20086;-86
2023/04/10 02:52:06;;;;;;;14.57;8.63;;;9.90;70.80;;;;;;5059601;28;20489;-87
2023/04/10 02:54:31;;;;;;;15.17;8.63;;;9.90;71.00;;;;;;5044742;28;20475;-85
2023/04/10 02:56:58;;;;;;;13.27;8.20;;;9.90;70.90;;;;;;5074728;28;20047;-86
2023/04/10 02:59:24;;;;;;;13.57;8.80;;;9.80;71.00;;;;;;5058754;28;20049;-86
2023/04/10 03:01:53;;;;;;;14.60;9.03;;;9.80;71.10;;;;;;5056813;28;20028;-85
2023/04/10 03:04:19;;;;;;;13.07;7.97;;;9.80;71.20;;;;;;5072786;28;20050;-86
2023/04/10 03:06:45;;;;;;;14.20;9.20;;;9.80;71.40;;;;;;5044332;28;20098;-87
2023/04/10 03:09:11;;;;;;;12.07;7.20;;;9.70;71.40;;;;;;5079079;28;20016;-86
2023/04/10 03:11:36;;;;;;;14.40;8.70;;;9.60;71.30;;;;;;5041457;28;20119;-86
2023/04/10 03:14:03;;;;;;;13.47;8.97;;;9.70;71.50;;;;;;5057936;28;20029;-87
2023/04/10 03:16:29;;;;;;;14.37;8.77;;;9.80;71.50;;;;;;5075525;28;20024;-86
2023/04/10 03:18:55;;;;;;;13.90;8.73;;;9.70;71.60;;;;;;5057440;28;20039;-87
2023/04/10 03:21:21;;;;;;;14.13;8.20;;;9.70;71.60;;;;;;5057852;28;20051;-86
2023/04/10 03:23:46;;;;;;;13.40;8.70;;;9.70;71.70;;;;;;5057041;28;20008;-78
2023/04/10 03:26:12;;;;;;;14.60;8.60;;;9.60;71.80;;;;;;5040131;28;20074;-78
2023/04/10 03:28:38;;;;;;;13.97;8.67;;;9.70;72.00;;;;;;5040049;28;20480;-78
2023/04/10 03:31:04;;;;;;;15.50;8.57;;;9.70;71.80;;;;;;5056770;28;20439;-77
2023/04/10 03:33:30;;;;;;;12.97;8.10;;;9.60;71.80;;;;;;5040387;28;20024;-86
2023/04/10 03:35:57;;;;;;;14.63;8.40;;;9.60;71.80;;;;;;5056790;28;20024;-86
2023/04/10 03:38:23;;;;;;;14.40;8.17;;;9.60;72.00;;;;;;5043848;28;20028;-86
2023/04/10 03:40:48;;;;;;;13.50;7.83;;;9.60;71.90;;;;;;5036876;28;20024;-86
2023/04/10 03:43:15;;;;;;;14.03;8.07;;;9.60;72.00;;;;;;5053426;28;20366;-86
2023/04/10 03:45:41;;;;;;;13.83;8.37;;;9.60;72.20;;;;;;5036994;28;20036;-86
2023/04/10 03:48:07;;;;;;;13.87;8.37;;;9.50;72.10;;;;;;5053507;28;20036;-86
2023/04/10 03:50:33;;;;;;;13.77;8.57;;;9.50;72.10;;;;;;5037092;28;20029;-86
2023/04/10 03:52:59;;;;;;;13.70;8.00;;;9.50;72.00;;;;;;5054614;28;20027;-86
2023/04/10 03:55:25;;;;;;;13.73;8.77;;;9.50;72.10;;;;;;5053473;28;20017;-86
2023/04/10 03:57:50;;;;;;;14.00;9.13;;;9.50;72.20;;;;;;5054502;28;20070;-86
2023/04/10 04:00:17;;;;;;;15.57;9.47;;;9.50;72.40;;;;;;5036675;28;20041;-86
2023/04/10 04:02:42;;;;;;;13.93;9.30;;;9.40;72.30;;;;;;5036945;28;20111;-87
2023/04/10 04:05:09;;;;;;;14.03;9.13;;;9.40;72.30;;;;;;5036728;28;20111;-86
2023/04/10 04:07:34;;;;;;;14.07;8.97;;;9.30;72.30;;;;;;5036636;28;20025;-86
2023/04/10 04:10:00;;;;;;;14.63;8.20;;;9.40;72.40;;;;;;5036745;28;20048;-86
2023/04/10 04:12:26;;;;;;;16.43;9.83;;;9.30;72.40;;;;;;5036546;28;20090;-86
2023/04/10 04:14:52;;;;;;;13.73;8.23;;;9.30;72.50;;;;;;5060864;28;20448;-87
2023/04/10 04:17:17;;;;;;;17.27;9.43;;;9.30;72.50;;;;;;5036548;28;20577;-86
2023/04/10 04:19:44;;;;;;;14.83;9.00;;;9.30;72.50;;;;;;5031146;28;20388;-86
2023/04/10 04:22:10;;;;;;;14.70;8.67;;;9.20;72.60;;;;;;5053465;28;20016;-86
2023/04/10 04:24:36;;;;;;;15.13;9.53;;;9.20;72.60;;;;;;5054870;28;20166;-87
2023/04/10 04:27:02;;;;;;;14.77;8.50;;;9.20;72.70;;;;;;5055899;28;20056;-87
2023/04/10 04:29:29;;;;;;;14.57;9.67;;;9.20;72.80;;;;;;5038895;28;20025;-86
2023/04/10 04:31:55;;;;;;;16.40;9.47;;;9.20;72.90;;;;;;5056244;28;20033;-86
2023/04/10 04:34:20;;;;;;;15.70;9.13;;;9.20;73.00;;;;;;5056224;28;20055;-86
2023/04/10 04:36:46;;;;;;;15.03;8.70;;;9.20;73.00;;;;;;5055912;28;20549;-86
2023/04/10 04:39:11;;;;;;;14.07;8.77;;;9.10;73.10;;;;;;5039274;28;20404;-86
2023/04/10 04:41:37;;;;;;;16.40;9.83;;;9.10;73.20;;;;;;5055589;28;20477;-86
2023/04/10 04:44:05;;;;;;;19.00;9.20;;;9.10;73.20;;;;;;5055739;28;20035;-86
2023/04/10 04:46:31;;;;;;;14.10;8.70;;;9.20;73.30;;;;;;5073851;28;20017;-86
2023/04/10 04:48:56;;;;;;;14.57;9.60;;;9.10;73.20;;;;;;5055408;28;20445;-86
2023/04/10 04:51:22;;;;;;;14.83;9.23;;;9.10;73.30;;;;;;5022624;28;20480;-87
2023/04/10 04:53:47;;;;;;;15.37;9.17;;;9.10;73.30;;;;;;5053410;28;20036;-87
2023/04/10 04:56:13;;;;;;;15.90;9.37;;;9.10;73.40;;;;;;5054828;28;20409;-86
2023/04/10 04:58:39;;;;;;;15.17;8.80;;;9.10;73.40;;;;;;5039162;28;20039;-85
2023/04/10 05:01:05;;;;;;;14.00;8.53;;;9.00;73.50;;;;;;5055909;28;20025;-86
2023/04/10 05:03:31;;;;;;;15.83;9.30;;;9.00;73.50;;;;;;5038928;28;20048;-86
2023/04/10 05:05:57;;;;;;;13.67;8.63;;;9.10;73.60;;;;;;5055882;28;20101;-86
2023/04/10 05:08:22;;;;;;;16.83;9.87;;;8.90;73.50;;;;;;5056135;28;20024;-86
2023/04/10 05:10:49;;;;;;;13.47;8.20;;;9.10;73.70;;;;;;5052686;28;20020;-86
2023/04/10 05:13:16;;;;;;;13.03;8.30;;;9.10;73.60;;;;;;5047184;28;20047;-86
2023/04/10 05:15:44;;;;;;;13.57;7.87;;;9.10;73.70;;;;;;5051535;28;20024;-87
2023/04/10 05:18:10;;;;;;;18.40;9.63;;;9.10;73.70;;;;;;5048668;28;20048;-86
2023/04/10 05:20:36;;;;;;;14.73;9.03;;;9.20;73.70;;;;;;5055428;28;20051;-87
2023/04/10 05:23:02;;;;;;;15.40;8.87;;;9.20;73.60;;;;;;5051014;28;20028;-86
2023/04/10 05:25:27;;;;;;;14.93;9.00;;;9.20;73.50;;;;;;5052452;28;20017;-86
2023/04/10 05:27:53;;;;;;;16.17;9.73;;;9.20;73.50;;;;;;5051883;28;20036;-87
2023/04/10 05:30:18;;;;;;;15.63;9.30;;;9.30;73.50;;;;;;5036540;28;20059;-86
2023/04/10 05:32:47;;;;;;;13.80;8.47;;;9.20;73.50;;;;;;5021796;28;20025;-85
2023/04/10 05:35:12;;;;;;;15.10;8.80;;;9.30;73.50;;;;;;5038456;28;20457;-86
2023/04/10 05:37:38;;;;;;;14.23;9.20;;;9.30;73.50;;;;;;5022814;28;20056;-86
2023/04/10 05:40:04;;;;;;;15.13;8.83;;;9.30;73.40;;;;;;5039180;28;20107;-86
2023/04/10 05:42:30;;;;;;;15.40;8.77;;;9.40;73.50;;;;;;5021902;28;20118;-86
2023/04/10 05:44:56;;;;;;;15.80;9.27;;;9.40;73.40;;;;;;5022283;28;20095;-85
2023/04/10 05:47:21;;;;;;;12.67;8.23;;;9.40;73.40;;;;;;5022887;28;20088;-86
2023/04/10 05:49:47;;;;;;;14.23;8.07;;;9.50;73.40;;;;;;5057026;28;20031;-87
2023/04/10 05:52:12;;;;;;;13.13;7.93;;;9.50;73.30;;;;;;5039393;28;20106;-86
2023/04/10 05:54:38;;;;;;;14.37;8.90;;;9.50;73.30;;;;;;5022871;28;20036;-86
2023/04/10 05:57:04;;;;;;;14.63;8.73;;;9.50;73.30;;;;;;5038948;28;20028;-87
2023/04/10 05:59:29;;;;;;;16.00;9.27;;;9.60;73.30;;;;;;5039130;28;20041;-87
2023/04/10 06:01:56;;;;;;;14.97;8.50;;;9.60;73.20;;;;;;5006687;28;20021;-87
2023/04/10 06:04:22;;;;;;;14.93;8.97;;;9.70;73.30;;;;;;5038436;28;20031;-78
2023/04/10 06:06:48;;;;;;;16.93;8.87;;;9.70;73.20;;;;;;5021987;28;20021;-78
2023/04/10 06:09:14;;;;;;;15.90;9.37;;;9.80;73.10;;;;;;5021915;28;20057;-78
2023/04/10 06:11:49;;;;;;;12.87;8.70;;;9.80;73.10;;;;;;5073319;28;20059;-80
2023/04/10 06:14:19;;;;;;;14.17;9.03;;;9.80;73.10;;;;;;5057483;28;20024;-81
2023/04/10 06:16:45;;;;;;;13.63;8.63;;;9.90;73.10;;;;;;5054850;28;20044;-80
2023/04/10 06:19:20;;;;;;;17.17;9.87;;;10.00;73.10;;;;;;5074371;28;20517;-81
2023/04/10 06:21:52;;;;;;;15.03;9.33;;;10.00;73.00;;;;;;5057706;28;20036;-81
2023/04/10 06:24:17;;;;;;;16.30;10.10;;;10.00;72.90;;;;;;5041557;28;20032;-82
2023/04/10 06:26:43;;;;;;;15.80;9.80;;;10.10;72.90;;;;;;5058025;28;20024;-82
2023/04/10 06:29:12;;;;;;;14.53;9.60;;;10.20;72.90;;;;;;5056873;28;20028;-82
2023/04/10 06:31:37;;;;;;;16.60;9.67;;;10.20;72.70;;;;;;5075190;28;20074;-78
2023/04/10 06:34:03;;;;;;;15.50;9.73;;;10.30;72.40;;;;;;5057331;28;20029;-78
2023/04/10 06:36:28;;;;;;;16.33;10.13;;;10.30;72.20;;;;;;5024577;28;20028;-78
2023/04/10 06:38:54;;;;;;;14.93;9.40;;;10.40;72.00;;;;;;5056739;28;20031;-78
2023/04/10 06:41:20;;;;;;;18.63;10.37;;;10.40;71.80;;;;;;5033814;28;20033;-78
2023/04/10 06:43:46;;;;;;;16.50;9.13;;;10.50;71.60;;;;;;5034874;28;20582;-78
2023/04/10 06:46:13;;;;;;;16.80;9.60;;;10.50;71.50;;;;;;5033014;28;20025;-78
2023/04/10 06:48:38;;;;;;;17.43;10.67;;;10.60;71.60;;;;;;5056717;28;20036;-78
2023/04/10 06:51:04;;;;;;;15.90;10.07;;;10.60;71.40;;;;;;5039544;28;20028;-78
2023/04/10 06:53:30;;;;;;;13.10;8.67;;;10.70;71.40;;;;;;5057179;28;20033;-78
2023/04/10 06:55:56;;;;;;;13.27;9.07;;;10.70;71.30;;;;;;5040650;28;20032;-78
2023/04/10 06:58:23;;;;;;;17.77;9.73;;;10.70;71.20;;;;;;5056690;28;20036;-77
2023/04/10 07:00:48;;;;;;;14.80;9.73;;;10.80;71.00;;;;;;5023954;28;20044;-78
2023/04/10 07:03:14;;;;;;;14.40;9.50;;;10.80;70.90;;;;;;5040596;28;20148;-77
2023/04/10 07:05:40;;;;;;;14.20;9.70;;;10.90;70.70;;;;;;5057199;28;20012;-78
2023/04/10 07:08:07;;;;;;;16.57;9.73;;;10.90;70.30;;;;;;5042877;28;20056;-78
2023/04/10 07:10:33;;;;;;;18.60;9.33;;;11.00;70.30;;;;;;5031070;28;20028;-78
2023/04/10 07:13:00;;;;;;;19.43;10.10;;;11.10;70.20;;;;;;5075139;28;20021;-78
2023/04/10 07:15:26;;;;;;;15.33;10.03;;;11.20;70.30;;;;;;5057936;28;20037;-78
2023/04/10 07:17:51;;;;;;;14.63;9.27;;;11.20;70.20;;;;;;5024367;28;20040;-77
2023/04/10 07:20:17;;;;;;;14.33;8.83;;;11.30;69.90;;;;;;5040790;28;20029;-78
2023/04/10 07:22:43;;;;;;;12.23;8.07;;;11.40;69.90;;;;;;5057361;28;20024;-77
2023/04/10 07:25:09;;;;;;;13.60;7.83;;;11.40;69.50;;;;;;5024038;28;20461;-77
2023/04/10 07:27:34;;;;;;;15.30;9.98;;;11.50;69.40;;;;;;5057294;28;20059;-77
2023/04/10 07:30:00;;;;;;;14.73;9.10;;;11.60;69.20;;;;;;5023886;28;20025;-78
2023/04/10 07:32:26;;;;;;;14.00;9.15;;;11.60;68.90;;;;;;5040438;28;20032;-78
2023/04/10 07:34:51;;;;;;;14.43;8.60;;;11.70;68.80;;;;;;5057449;28;20107;-76
2023/04/10 07:37:17;;;;;;;11.38;7.28;;;11.70;68.50;;;;;;5023884;28;20419;-76
2023/04/10 07:39:43;;;;;;;15.05;8.60;;;11.70;68.30;;;;;;5039570;28;20028;-76
2023/04/10 07:42:10;;;;;;;14.27;8.45;;;11.80;68.30;;;;;;5056514;28;20082;-76
2023/04/10 07:44:36;;;;;;;13.65;9.13;;;11.80;68.30;;;;;;5051102;28;20028;-77
2023/04/10 07:47:02;;;;;;;13.13;8.32;;;11.90;67.90;;;;;;5062335;28;20481;-77
2023/04/10 07:49:28;;;;;;;13.35;8.52;;;11.90;68.00;;;;;;5039543;28;20427;-82
2023/04/10 07:51:53;;;;;;;12.10;8.05;;;12.00;68.30;;;;;;5057408;28;20104;-82
2023/04/10 07:54:19;;;;;;;14.13;8.80;;;12.00;67.90;;;;;;5057450;28;20365;-83
2023/04/10 07:56:45;;;;;;;14.98;9.43;;;12.10;67.70;;;;;;5041149;28;20107;-82
2023/04/10 07:59:11;;;;;;;12.63;7.93;;;12.10;67.70;;;;;;5026440;28;20429;-83
2023/04/10 08:01:36;;;;;;;15.10;8.80;;;12.10;67.70;;;;;;5040790;28;20040;-83
2023/04/10 08:04:02;;;;;;;12.68;8.32;;;12.20;67.90;;;;;;5041054;28;20469;-83
2023/04/10 08:06:28;;;;;;;15.48;9.13;;;12.20;67.30;;;;;;5056909;28;20475;-83
2023/04/10 08:08:53;;;;;;;12.10;8.25;;;12.20;67.40;;;;;;5042218;28;20028;-80
2023/04/10 08:11:30;;;;;;;11.38;7.45;;;12.30;67.00;;;;;;5061650;28;20085;-82
2023/04/10 08:14:00;;;;;;;11.77;7.85;;;12.40;67.00;;;;;;5044887;28;20039;-82
2023/04/10 08:16:27;;;;;;;13.20;8.15;;;12.50;66.80;;;;;;5075144;28;20387;-80
2023/04/10 08:18:55;;;;;;;12.55;7.90;;;12.60;66.80;;;;;;5039533;28;20032;-80
2023/04/10 08:21:21;;;;;;;13.90;8.15;;;12.70;66.70;;;;;;5055755;28;20452;-80
2023/04/10 08:23:52;;;;;;;11.45;7.00;;;12.80;66.40;;;;;;5073705;28;20021;-81
2023/04/10 08:26:18;;;;;;;10.77;6.72;;;12.90;66.10;;;;;;5073650;28;20020;-80
2023/04/10 08:28:49;;;;;;;11.60;6.90;;;13.00;66.00;;;;;;5055941;28;20028;-80
2023/04/10 08:31:15;;;;;;;10.32;6.82;;;13.10;65.10;;;;;;5055651;28;20020;-81
2023/04/10 08:33:40;;;;;;;12.45;6.60;;;13.20;64.60;;;;;;5073587;28;20031;-80
2023/04/10 08:36:08;;;;;;;11.50;7.13;;;13.30;64.40;;;;;;5055965;28;20029;-80
2023/04/10 08:38:33;;;;;;;10.82;6.45;;;13.40;64.00;;;;;;5055626;28;20111;-80
2023/04/10 08:40:59;;;;;;;11.70;6.28;;;13.50;63.40;;;;;;5073435;28;20055;-80
2023/04/10 08:43:26;;;;;;;11.57;7.05;;;13.50;63.40;;;;;;5038908;28;20027;-80
2023/04/10 08:45:52;;;;;;;10.63;6.57;;;13.60;63.20;;;;;;5055407;28;20506;-80
2023/04/10 08:48:21;;;;;;;11.82;7.18;;;13.60;62.70;;;;;;5072964;28;20079;-81
2023/04/10 08:50:49;;;;;;;10.27;6.80;;;13.70;62.50;;;;;;5073208;28;20031;-81
2023/04/10 08:53:16;;;;;;;11.02;7.40;;;13.70;62.20;;;;;;5073374;28;20028;-81
2023/04/10 08:55:44;;;;;;;9.00;5.95;;;13.80;62.30;;;;;;5054757;28;20485;-81
2023/04/10 08:58:12;;;;;;;9.85;6.53;;;13.90;62.60;;;;;;5072314;28;20496;-81
2023/04/10 09:00:38;;;;;;;9.95;6.00;;;14.00;62.30;;;;;;5026485;28;20045;-81
2023/04/10 09:03:10;;;;;;;11.10;6.85;;;14.20;62.40;;;;;;5018946;28;20025;-81
2023/04/10 09:05:36;;;;;;;9.43;5.95;;;14.40;62.20;;;;;;5035772;28;20025;-80
2023/04/10 09:08:03;;;;;;;10.35;6.75;;;14.40;61.90;;;;;;5053202;28;20029;-81
2023/04/10 09:10:29;;;;;;;9.30;5.95;;;14.60;61.40;;;;;;5053093;28;20024;-81
2023/04/10 09:12:55;;;;;;;9.25;6.07;;;14.60;60.70;;;;;;5035428;28;20119;-82
2023/04/10 09:15:20;;;;;;;9.32;6.22;;;14.70;60.20;;;;;;5035000;28;20029;-81
2023/04/10 09:18:02;;;;;;;10.15;6.05;;;14.80;60.10;;;;;;5018679;28;20037;-80
2023/04/10 09:20:31;;;;;;;11.40;5.60;;;14.70;59.60;;;;;;5018725;28;20021;-81
2023/04/10 09:22:57;;;;;;;9.65;5.70;;;14.80;59.60;;;;;;5036624;28;20430;-82
2023/04/10 09:25:40;;;;;;;8.75;5.22;;;14.80;59.50;;;;;;5038216;28;20537;-83
2023/04/10 09:28:07;;;;;;;9.45;5.68;;;14.90;59.70;;;;;;5054916;28;20444;-82
2023/04/10 09:30:38;;;;;;;7.85;4.55;;;14.90;59.10;;;;;;5055120;28;20035;-82
2023/04/10 09:33:28;;;;;;;9.13;5.13;;;15.00;59.20;;;;;;5056203;28;20025;-83
2023/04/10 09:35:56;;;;;;;8.73;5.05;;;15.10;59.20;;;;;;5073274;28;20385;-77
2023/04/10 09:38:22;;;;;;;8.60;5.70;;;15.20;59.20;;;;;;5054654;28;20032;-76
2023/04/10 09:40:48;;;;;;;9.48;5.50;;;15.20;58.90;;;;;;5054913;28;20028;-76
2023/04/10 09:43:20;;;;;;;10.18;5.75;;;15.20;58.70;;;;;;5072215;28;20020;-77
2023/04/10 09:45:48;;;;;;;8.43;5.05;;;15.20;58.60;;;;;;5054523;28;20119;-76
2023/04/10 09:48:14;;;;;;;11.20;6.20;;;15.20;58.80;;;;;;5054201;28;20074;-77
2023/04/10 09:50:40;;;;;;;8.80;4.95;;;15.20;59.00;;;;;;5053138;28;20029;-77
2023/04/10 09:53:18;;;;;;;7.88;4.88;;;15.30;59.20;;;;;;5037848;28;20028;-77
2023/04/10 09:55:45;;;;;;;9.30;5.35;;;15.20;58.80;;;;;;5054976;28;20059;-81
2023/04/10 09:58:12;;;;;;;11.32;4.95;;;15.30;58.80;;;;;;5055387;28;20503;-81
2023/04/10 10:00:42;;;;;;;8.82;5.32;;;15.30;58.60;;;;;;5072444;28;20044;-77
2023/04/10 10:03:10;;;;;;;10.05;5.43;;;15.30;58.60;;;;;;5072485;28;20031;-76
2023/04/10 10:05:42;;;;;;;9.52;5.88;;;15.40;58.50;;;;;;5054423;28;20036;-76
2023/04/10 10:08:12;;;;;;;10.55;5.32;;;15.40;58.40;;;;;;5037992;28;20380;-76
2023/04/10 10:10:46;;;;;;;9.02;5.10;;;15.40;58.50;;;;;;5072379;28;20410;-76
2023/04/10 10:13:19;;;;;;;;;;;15.50;58.50;;;;;;5054950;28;20032;-77
2023/04/10 10:16:06;;;;;;;9.48;5.05;;;15.50;58.50;;;;;;5044489;28;20003;-76
2023/04/10 10:18:53;;;;;;;9.90;5.57;;;15.50;58.60;;;;;;5054773;28;20116;-76
2023/04/10 10:21:20;;;;;;;7.35;4.53;;;15.60;58.40;;;;;;5038101;28;20017;-77
2023/04/10 10:23:47;;;;;;;9.30;4.75;;;15.70;58.60;;;;;;5037134;28;20029;-76
2023/04/10 10:26:14;;;;;;;8.18;4.85;;;15.70;58.60;;;;;;5075890;28;20070;-77
2023/04/10 10:28:41;;;;;;;6.93;4.40;;;15.70;58.70;;;;;;5040907;28;20056;-76
2023/04/10 10:31:06;;;;;;;8.25;4.90;;;15.80;58.50;;;;;;5057712;28;20047;-76
2023/04/10 10:33:35;;;;;;;16.20;5.22;;;15.80;57.90;;;;;;5041069;28;20548;-77
2023/04/10 10:36:03;;;;;;;7.90;4.65;;;15.80;58.30;;;;;;5057447;28;20024;-76
2023/04/10 10:38:30;;;;;;;7.55;4.47;;;15.90;58.60;;;;;;5058020;28;20370;-76
2023/04/10 10:41:39;;;;;;;11.30;5.25;;;15.90;58.30;;;;;;5041362;28;20021;-79
2023/04/10 10:44:20;;;;;;;7.00;4.30;;;16.00;57.90;;;;;;4994056;28;20105;-77
2023/04/10 10:46:50;;;;;;;7.18;4.15;;;16.10;57.90;;;;;;4994021;28;20085;-76
2023/04/10 10:49:16;;;;;;;7.57;4.60;;;16.20;57.80;;;;;;5045004;28;20032;-77
2023/04/10 10:51:50;;;;;;;6.05;3.83;;;16.20;57.60;;;;;;5057310;28;20029;-76
2023/04/10 10:54:45;;;;;;;7.47;4.18;;;16.20;57.60;;;;;;5075266;28;20016;-76
2023/04/10 10:57:47;;;;;;;5.78;3.50;;;16.30;57.80;;;;;;5032029;28;20041;-76
2023/04/10 11:00:13;;;;;;;7.35;4.20;;;16.50;57.50;;;;;;5057094;28;20052;-77
2023/04/10 11:02:39;;;;;;;6.97;4.03;;;16.70;57.60;;;;;;5057679;28;20017;-76
2023/04/10 11:05:05;;;;;;;10.15;3.78;;;16.80;57.10;;;;;;5075264;28;20385;-76
2023/04/10 11:07:59;;;;;;;6.53;3.60;;;17.00;56.70;;;;;;5040448;28;20021;-78
2023/04/10 11:11:08;;;;;;;5.20;3.35;;;17.20;56.60;;;;;;5057413;28;20037;-76
2023/04/10 11:13:35;;;;;;;5.80;3.25;;;17.30;56.30;;;;;;5074913;28;20032;-76
2023/04/10 11:16:02;;;;;;;6.55;3.90;;;17.50;56.60;;;;;;5040544;28;20055;-76
2023/04/10 11:18:43;;;;;;;6.10;3.92;;;17.60;55.90;;;;;;5040472;28;20078;-79
2023/04/10 11:21:19;;;;;;;6.22;3.42;;;17.90;55.30;;;;;;5074722;28;20468;-77
2023/04/10 11:23:57;;;;;;;5.32;3.42;;;18.20;55.30;;;;;;5057242;28;20476;-76
2023/04/10 11:26:35;;;;;;;6.05;3.25;;;18.40;55.80;;;;;;5074783;28;20020;-76
2023/04/10 11:29:21;;;;;;;4.60;3.20;;;18.70;55.40;;;;;;5056431;28;20025;-76
2023/04/10 11:31:57;;;;;;;6.20;2.90;;;18.80;53.50;;;;;;5060655;28;20037;-77
2023/04/10 11:34:23;;;;;;;6.10;3.80;;;19.00;53.20;;;;;;5056826;28;20032;-77
2023/04/10 11:36:49;;;;;;;6.30;3.72;;;19.10;52.80;;;;;;5056656;28;20099;-75
2023/04/10 11:39:19;;;;;;;6.03;2.85;;;19.40;52.40;;;;;;5074401;28;20028;-77
2023/04/10 11:41:49;;;;;;;7.97;3.75;;;19.80;51.70;;;;;;5056472;28;20036;-77
2023/04/10 11:44:25;;;;;;;5.53;3.42;;;19.90;51.10;;;;;;5056590;28;20024;-76
2023/04/10 11:46:51;;;;;;;6.22;3.60;;;20.00;50.50;;;;;;5058056;28;20021;-77
2023/04/10 11:49:20;;;;;;;6.88;3.90;;;19.80;50.10;;;;;;5056620;28;20044;-80
2023/04/10 11:51:47;;;;;;;8.18;4.57;;;19.70;50.40;;;;;;5056266;28;20020;-84
2023/04/10 11:54:15;;;;;;;5.78;3.75;;;19.60;50.50;;;;;;5056369;28;20496;-82
2023/04/10 11:56:43;;;;;;;6.72;3.95;;;19.40;50.80;;;;;;5074093;28;20017;-82
2023/04/10 11:59:18;;;;;;;6.90;4.05;;;19.20;51.20;;;;;;5039934;28;20495;-80
2023/04/10 12:01:45;;;;;;;6.47;4.22;;;19.00;51.60;;;;;;5056518;28;20054;-80
2023/04/10 12:04:15;;;;;;;6.45;4.22;;;18.90;52.10;;;;;;5056078;28;20108;-81
2023/04/10 12:06:51;;;;;;;5.97;3.58;;;18.90;51.90;;;;;;5055939;28;20123;-80
2023/04/10 12:09:19;;;;;;;7.88;3.88;;;18.80;52.20;;;;;;5055995;28;20145;-81
2023/04/10 12:11:52;;;;;;;4.88;3.15;;;18.80;52.30;;;;;;5055851;28;20454;-85
2023/04/10 12:14:19;;;;;;;5.72;3.28;;;18.80;52.70;;;;;;5055950;28;20028;-82
2023/04/10 12:16:45;;;;;;;5.63;3.05;;;18.80;52.80;;;;;;5055879;28;20051;-81
2023/04/10 12:19:13;;;;;;;5.35;2.88;;;18.90;52.90;;;;;;5039515;28;20063;-80
2023/04/10 12:21:43;;;;;;;4.55;2.47;;;18.90;52.90;;;;;;5055854;28;20032;-82
2023/04/10 12:24:09;;;;;;;4.55;2.70;;;18.90;52.60;;;;;;5073592;28;20515;-81
2023/04/10 12:26:35;;;;;;;4.47;2.40;;;18.90;52.10;;;;;;5055602;28;20020;-76
2023/04/10 12:29:01;;;;;;;4.40;2.17;;;18.90;51.90;;;;;;5055834;28;20464;-76
2023/04/10 12:31:35;;;;;;;4.00;2.33;;;18.90;51.80;;;;;;5055405;28;20462;-75
2023/04/10 12:34:05;;;;;;;5.25;2.38;;;18.80;51.80;;;;;;5055577;28;20035;-76
2023/04/10 12:36:33;;;;;;;3.47;1.80;;;18.80;51.70;;;;;;5039018;28;20119;-76
2023/04/10 12:39:02;;;;;;;4.50;2.63;;;18.80;51.90;;;;;;5038409;28;20037;-75
2023/04/10 12:41:30;;;;;;;4.63;2.28;;;18.90;51.70;;;;;;5073233;28;20047;-75
2023/04/10 12:44:13;;;;;;;4.55;2.05;;;18.90;51.90;;;;;;5055241;28;20107;-75
2023/04/10 12:46:40;;;;;;;4.45;1.98;;;19.10;52.00;;;;;;5055178;28;20074;-76
2023/04/10 12:49:13;;;;;;;5.43;2.30;;;19.30;51.80;;;;;;5073358;28;20020;-76